Time;durP1;ratioP1;P1;durP2;ratioP2;P2;SDS_P1;SDS_P2;PMS_P1;PMS_P2;Temp;Humidity;BMP_temperature;BMP_pressure;BME280_temperature;BME280_humidity;BME280_pressure;Samples;Min_cycle;Max_cycle;Signal;HPM_P1;HPM_P2
2022/08/20 00:01:30;;;;;;;8.43;7.50;;;;;;;;;;4989136;28;20237;-76
2022/08/20 00:04:34;;;;;;;8.30;7.47;;;;;;;;;;4993724;28;20206;-76
2022/08/20 00:07:38;;;;;;;7.97;7.23;;;;;;;;;;5004925;28;20633;-77
2022/08/20 00:10:44;;;;;;;9.90;8.30;;;;;;;;;;4971336;28;20677;-77
2022/08/20 00:13:52;;;;;;;7.67;6.97;;;;;;;;;;4990235;28;20206;-76
2022/08/20 00:16:56;;;;;;;8.77;7.87;;;;;;;;;;4974115;28;20206;-76
2022/08/20 00:20:00;;;;;;;8.27;7.57;;;;;;;;;;4974437;28;20199;-76
2022/08/20 00:23:05;;;;;;;9.03;8.13;;;;;;;;;;4979076;28;20554;-76
2022/08/20 00:26:10;;;;;;;14.77;8.03;;;;;;;;;;4982287;28;20182;-76
2022/08/20 00:29:15;;;;;;;9.77;7.67;;;;;;;;;;4982592;28;20186;-76
2022/08/20 00:32:19;;;;;;;8.57;7.67;;;;;;;;;;4993233;28;20214;-78
2022/08/20 00:35:26;;;;;;;10.50;7.73;;;;;;;;;;4983324;28;20637;-78
2022/08/20 00:38:31;;;;;;;9.70;8.07;;;;;;;;;;4995491;28;20178;-79
2022/08/20 00:41:35;;;;;;;9.10;8.20;;;;;;;;;;4983902;28;20221;-79
2022/08/20 00:44:45;;;;;;;8.77;7.87;;;;;;;;;;4995533;28;20186;-78
2022/08/20 00:47:49;;;;;;;8.17;7.33;;;;;;;;;;4975784;28;20508;-78
2022/08/20 00:51:03;;;;;;;7.90;7.10;;;;;;;;;;4986508;28;20572;-77
2022/08/20 00:54:23;;;;;;;8.70;6.93;;;;;;;;;;4995396;28;20206;-77
2022/08/20 00:57:33;;;;;;;8.30;7.50;;;;;;;;;;4995564;28;20186;-78
2022/08/20 01:00:41;;;;;;;11.33;8.30;;;;;;;;;;4995244;28;20226;-78
2022/08/20 01:03:45;;;;;;;8.87;7.93;;;;;;;;;;4995140;28;20210;-78
2022/08/20 01:06:50;;;;;;;8.37;7.57;;;;;;;;;;4994819;28;20178;-78
2022/08/20 01:09:54;;;;;;;9.57;8.60;;;;;;;;;;4994311;28;20206;-78
2022/08/20 01:12:58;;;;;;;12.27;8.30;;;;;;;;;;4983417;28;20183;-78
2022/08/20 01:16:06;;;;;;;9.50;7.87;;;;;;;;;;4995574;28;20562;-78
2022/08/20 01:19:13;;;;;;;9.67;8.67;;;;;;;;;;4983202;28;20198;-77
2022/08/20 01:26:01;;;;;;;10.20;8.70;;;;;;;;;;4994398;28;20632;-77
2022/08/20 01:29:19;;;;;;;11.37;9.30;;;;;;;;;;4994744;28;20183;-78
2022/08/20 01:32:23;;;;;;;10.87;9.70;;;;;;;;;;4994777;28;20214;-78
2022/08/20 01:35:27;;;;;;;13.87;9.67;;;;;;;;;;4995999;28;20186;-78
2022/08/20 01:38:33;;;;;;;9.77;8.77;;;;;;;;;;4994713;28;20206;-79
2022/08/20 01:41:50;;;;;;;9.90;8.37;;;;;;;;;;4994483;28;20697;-78
2022/08/20 01:44:55;;;;;;;10.57;9.47;;;;;;;;;;4994524;28;20186;-78
2022/08/20 01:47:59;;;;;;;11.20;9.83;;;;;;;;;;4983615;28;20653;-79
2022/08/20 01:51:08;;;;;;;10.77;8.87;;;;;;;;;;4981794;28;20278;-78
2022/08/20 01:54:12;;;;;;;9.40;8.33;;;;;;;;;;4994055;28;20510;-79
2022/08/20 01:57:19;;;;;;;10.30;9.30;;;;;;;;;;4982793;28;20190;-79
2022/08/20 02:00:24;;;;;;;9.10;8.20;;;;;;;;;;4995144;28;20630;-79
2022/08/20 02:03:29;;;;;;;8.93;8.03;;;;;;;;;;4982457;28;20198;-78
2022/08/20 02:06:37;;;;;;;8.03;7.23;;;;;;;;;;4995089;28;20194;-78
2022/08/20 02:09:42;;;;;;;8.67;7.87;;;;;;;;;;4997856;28;20649;-78
2022/08/20 02:12:46;;;;;;;8.70;7.80;;;;;;;;;;4997992;28;20179;-78
2022/08/20 02:15:50;;;;;;;9.87;7.77;;;;;;;;;;4998128;28;20205;-79
2022/08/20 02:18:59;;;;;;;9.13;8.23;;;;;;;;;;4997631;28;20556;-79
2022/08/20 02:22:20;;;;;;;10.00;7.60;;;;;;;;;;4989622;28;20226;-79
2022/08/20 02:25:27;;;;;;;11.20;7.73;;;;;;;;;;4967565;28;20187;-79
2022/08/20 02:28:35;;;;;;;9.03;7.60;;;;;;;;;;4978996;28;20183;-79
2022/08/20 02:31:42;;;;;;;8.10;7.30;;;;;;;;;;4987858;28;20210;-76
2022/08/20 02:34:48;;;;;;;8.53;7.63;;;;;;;;;;4979304;28;20183;-79
2022/08/20 02:37:52;;;;;;;7.80;7.00;;;;;;;;;;4978114;28;20178;-79
2022/08/20 02:40:57;;;;;;;10.03;8.07;;;;;;;;;;4988012;28;20234;-79
2022/08/20 02:44:01;;;;;;;9.20;7.80;;;;;;;;;;4978856;28;20187;-79
2022/08/20 02:47:06;;;;;;;8.20;7.40;;;;;;;;;;4978518;28;20562;-79
2022/08/20 02:50:13;;;;;;;8.37;7.47;;;;;;;;;;4978713;28;20175;-79
2022/08/20 02:53:18;;;;;;;8.27;7.47;;;;;;;;;;4977590;28;20515;-78
2022/08/20 02:56:22;;;;;;;10.97;8.10;;;;;;;;;;4966673;28;20183;-79
2022/08/20 02:59:26;;;;;;;10.57;8.30;;;;;;;;;;5014682;23;20233;-88
2022/08/20 03:02:30;;;;;;;9.70;7.90;;;;;;;;;;5011351;28;20205;-88
2022/08/20 03:05:35;;;;;;;8.70;7.80;;;;;;;;;;5016156;28;20182;-86
2022/08/20 03:08:40;;;;;;;10.07;8.07;;;;;;;;;;4997552;28;20213;-88
2022/08/20 03:11:44;;;;;;;8.20;7.40;;;;;;;;;;4973196;28;20194;-88
2022/08/20 03:14:48;;;;;;;9.53;8.53;;;;;;;;;;4984304;28;20198;-88
2022/08/20 03:17:52;;;;;;;9.53;8.27;;;;;;;;;;4984694;28;20178;-87
2022/08/20 03:20:57;;;;;;;10.37;8.90;;;;;;;;;;4984198;28;20210;-88
2022/08/20 03:24:02;;;;;;;9.10;8.20;;;;;;;;;;4995529;28;20222;-88
2022/08/20 03:27:06;;;;;;;9.37;8.37;;;;;;;;;;4972790;28;20202;-88
2022/08/20 03:30:12;;;;;;;10.10;8.80;;;;;;;;;;4972761;28;20225;-88
2022/08/20 03:33:18;;;;;;;10.73;9.47;;;;;;;;;;4983471;28;20194;-88
2022/08/20 03:36:24;;;;;;;9.97;8.97;;;;;;;;;;4972644;28;20518;-88
2022/08/20 03:39:28;;;;;;;10.07;8.93;;;;;;;;;;4994898;28;20218;-88
2022/08/20 03:42:32;;;;;;;12.23;9.07;;;;;;;;;;4994471;28;20214;-88
2022/08/20 03:45:40;;;;;;;12.57;9.63;;;;;;;;;;4994945;28;20178;-88
2022/08/20 03:48:44;;;;;;;11.67;10.33;;;;;;;;;;4983485;28;20680;-87
2022/08/20 03:51:49;;;;;;;17.07;13.90;;;;;;;;;;4972441;28;20189;-88
2022/08/20 03:54:55;;;;;;;20.40;14.07;;;;;;;;;;4983370;28;20193;-88
2022/08/20 03:58:02;;;;;;;19.73;16.60;;;;;;;;;;4983714;28;20561;-88
2022/08/20 04:01:06;;;;;;;23.03;18.63;;;;;;;;;;4983390;28;20217;-88
2022/08/20 04:04:10;;;;;;;23.23;19.40;;;;;;;;;;4972566;28;20181;-87
2022/08/20 04:07:24;;;;;;;18.10;15.60;;;;;;;;;;4983293;28;20190;-88
2022/08/20 04:10:29;;;;;;;20.40;16.83;;;;;;;;;;4984151;28;20193;-88
2022/08/20 04:13:34;;;;;;;20.43;17.60;;;;;;;;;;4971958;28;20205;-88
2022/08/20 04:16:39;;;;;;;21.47;18.13;;;;;;;;;;4971211;28;20201;-88
2022/08/20 04:19:43;;;;;;;20.33;16.57;;;;;;;;;;4971817;28;20224;-87
2022/08/20 04:22:48;;;;;;;21.40;18.33;;;;;;;;;;4983208;28;20217;-92
2022/08/20 04:25:53;;;;;;;20.83;16.77;;;;;;;;;;4984434;28;20207;-86
2022/08/20 04:28:57;;;;;;;24.50;18.53;;;;;;;;;;4984178;28;20221;-86
2022/08/20 04:32:03;;;;;;;23.53;19.07;;;;;;;;;;4972245;28;20652;-86
2022/08/20 04:35:10;;;;;;;20.87;18.63;;;;;;;;;;4973897;28;20192;-86
2022/08/20 04:38:16;;;;;;;19.57;17.43;;;;;;;;;;4995114;28;20228;-86
2022/08/20 04:41:21;;;;;;;23.93;19.23;;;;;;;;;;4983019;28;20217;-85
2022/08/20 04:44:26;;;;;;;24.50;18.97;;;;;;;;;;4964393;28;20263;-86
2022/08/20 04:47:30;;;;;;;22.23;19.00;;;;;;;;;;4976105;28;20664;-86
2022/08/20 04:50:36;;;;;;;22.90;19.07;;;;;;;;;;4976196;28;20656;-86
2022/08/20 04:53:41;;;;;;;20.73;18.07;;;;;;;;;;4953516;28;20186;-86
2022/08/20 04:56:47;;;;;;;21.27;19.00;;;;;;;;;;4954148;28;20190;-86
2022/08/20 04:59:52;;;;;;;20.10;17.90;;;;;;;;;;4966604;28;20237;-86
2022/08/20 05:02:56;;;;;;;20.17;17.97;;;;;;;;;;4977497;28;20230;-86
2022/08/20 05:06:00;;;;;;;21.00;18.17;;;;;;;;;;4966729;28;20209;-86
2022/08/20 05:09:05;;;;;;;21.13;18.80;;;;;;;;;;4983994;28;20232;-85
2022/08/20 05:12:09;;;;;;;21.93;19.53;;;;;;;;;;4991180;28;20181;-86
2022/08/20 05:15:14;;;;;;;20.77;17.43;;;;;;;;;;4992868;28;20548;-85
2022/08/20 05:18:22;;;;;;;23.57;20.93;;;;;;;;;;5002602;28;20228;-86
2022/08/20 05:21:26;;;;;;;21.47;19.13;;;;;;;;;;5002326;28;20217;-86
2022/08/20 05:24:31;;;;;;;23.50;20.43;;;;;;;;;;4989948;28;20201;-86
2022/08/20 05:27:35;;;;;;;23.70;19.37;;;;;;;;;;4992215;28;20182;-86
2022/08/20 05:30:42;;;;;;;20.77;18.53;;;;;;;;;;4981858;28;20185;-86
2022/08/20 05:33:47;;;;;;;20.97;18.77;;;;;;;;;;4981360;28;20304;-86
2022/08/20 05:36:51;;;;;;;21.00;17.93;;;;;;;;;;5003466;28;20189;-86
2022/08/20 05:39:56;;;;;;;20.17;17.93;;;;;;;;;;4992022;28;20735;-86
2022/08/20 05:43:03;;;;;;;21.83;19.53;;;;;;;;;;4980898;28;20253;-86
2022/08/20 05:46:07;;;;;;;24.43;18.10;;;;;;;;;;4991418;28;20193;-86
2022/08/20 05:49:18;;;;;;;19.67;17.30;;;;;;;;;;4991586;28;20228;-85
2022/08/20 05:52:23;;;;;;;24.67;20.00;;;;;;;;;;4978932;28;20680;-85
2022/08/20 05:55:27;;;;;;;21.77;19.47;;;;;;;;;;4978641;28;20656;-86
2022/08/20 05:58:31;;;;;;;22.13;18.07;;;;;;;;;;5000831;28;20236;-86
2022/08/20 06:01:38;;;;;;;23.47;20.97;;;;;;;;;;4977310;28;20228;-87
2022/08/20 06:04:42;;;;;;;21.77;19.13;;;;;;;;;;4987947;28;20205;-86
2022/08/20 06:07:46;;;;;;;21.93;19.67;;;;;;;;;;4987977;28;20533;-86
2022/08/20 06:10:50;;;;;;;20.20;17.70;;;;;;;;;;4977083;28;20193;-86
2022/08/20 06:13:55;;;;;;;18.73;16.20;;;;;;;;;;4976757;28;20205;-86
2022/08/20 06:17:08;;;;;;;24.57;19.00;;;;;;;;;;4987848;28;20197;-86
2022/08/20 06:20:12;;;;;;;21.93;19.00;;;;;;;;;;4981363;28;20190;-86
2022/08/20 06:23:17;;;;;;;22.23;18.57;;;;;;;;;;4987748;28;20324;-84
2022/08/20 06:26:22;;;;;;;23.47;17.67;;;;;;;;;;4977332;28;20181;-84
2022/08/20 06:29:27;;;;;;;18.23;16.27;;;;;;;;;;4988639;28;20588;-87
2022/08/20 06:32:32;;;;;;;20.10;17.77;;;;;;;;;;4988874;28;20189;-84
2022/08/20 06:35:36;;;;;;;19.87;17.77;;;;;;;;;;4987175;28;20185;-84
2022/08/20 06:38:45;;;;;;;21.47;17.23;;;;;;;;;;4975596;28;20228;-91
2022/08/20 06:41:50;;;;;;;22.57;16.03;;;;;;;;;;4986195;28;20228;-86
2022/08/20 06:44:54;;;;;;;20.40;16.40;;;;;;;;;;4989169;28;20190;-86
2022/08/20 06:48:00;;;;;;;20.10;15.90;;;;;;;;;;4988622;28;20205;-86
2022/08/20 06:51:05;;;;;;;19.00;16.13;;;;;;;;;;4999786;28;20193;-83
2022/08/20 06:54:09;;;;;;;18.70;16.17;;;;;;;;;;4985241;28;20209;-89
2022/08/20 06:57:13;;;;;;;18.20;16.23;;;;;;;;;;4973687;28;20181;-91
2022/08/20 07:00:18;;;;;;;19.77;17.23;;;;;;;;;;4973811;28;20185;-90
2022/08/20 07:03:22;;;;;;;19.80;17.30;;;;;;;;;;4984881;28;20213;-90
2022/08/20 07:06:26;;;;;;;21.07;16.83;;;;;;;;;;4984721;28;20193;-89
2022/08/20 07:09:30;;;;;;;18.80;16.40;;;;;;;;;;4984631;28;20220;-90
2022/08/20 07:12:35;;;;;;;20.07;17.87;;;;;;;;;;4973642;28;20213;-91
2022/08/20 07:15:39;;;;;;;19.70;16.07;;;;;;;;;;4984599;28;20205;-90
2022/08/20 07:18:43;;;;;;;21.30;17.30;;;;;;;;;;4984160;28;20225;-87
2022/08/20 07:21:48;;;;;;;20.67;15.87;;;;;;;;;;4984707;28;20553;-88
2022/08/20 07:24:52;;;;;;;19.47;16.67;;;;;;;;;;4996455;28;20197;-88
2022/08/20 07:28:05;;;;;;;20.17;16.60;;;;;;;;;;4984553;28;20656;-88
2022/08/20 07:34:32;;;;;;;17.67;14.67;;;;;;;;;;4996082;28;20186;-90
2022/08/20 07:37:45;;;;;;;21.70;16.37;;;;;;;;;;4973075;28;20553;-88
2022/08/20 07:40:59;;;;;;;20.10;14.83;;;;;;;;;;4984019;28;20189;-88
2022/08/20 07:44:04;;;;;;;19.07;16.07;;;;;;;;;;4984072;28;20204;-89
2022/08/20 07:47:09;;;;;;;17.97;15.53;;;;;;;;;;4973148;28;20181;-88
2022/08/20 07:50:16;;;;;;;17.50;15.63;;;;;;;;;;4972345;28;20189;-88
2022/08/20 07:53:20;;;;;;;18.27;16.10;;;;;;;;;;4983233;28;20193;-88
2022/08/20 07:56:25;;;;;;;17.87;14.83;;;;;;;;;;4983946;28;20197;-88
2022/08/20 07:59:31;;;;;;;16.00;14.27;;;;;;;;;;4983241;28;20233;-88
2022/08/20 08:02:35;;;;;;;16.77;14.90;;;;;;;;;;4994160;28;20248;-89
2022/08/20 08:05:43;;;;;;;18.33;14.83;;;;;;;;;;4972515;28;20205;-88
2022/08/20 08:08:47;;;;;;;18.87;15.20;;;;;;;;;;4972106;28;20245;-88
2022/08/20 08:11:56;;;;;;;17.83;15.70;;;;;;;;;;4994599;28;20197;-88
2022/08/20 08:15:03;;;;;;;16.93;15.13;;;;;;;;;;4972191;28;20201;-88
2022/08/20 08:18:12;;;;;;;18.97;14.50;;;;;;;;;;4994446;28;20233;-88
2022/08/20 08:21:17;;;;;;;17.17;14.67;;;;;;;;;;4983189;28;20185;-88
2022/08/20 08:24:22;;;;;;;19.00;15.73;;;;;;;;;;4972334;28;20193;-89
2022/08/20 08:27:26;;;;;;;19.03;14.70;;;;;;;;;;4983818;28;20190;-89
2022/08/20 08:30:30;;;;;;;16.73;14.77;;;;;;;;;;4984340;28;20193;-90
2022/08/20 08:33:34;;;;;;;14.67;13.07;;;;;;;;;;4983002;28;20206;-89
2022/08/20 08:36:39;;;;;;;16.63;14.27;;;;;;;;;;4983502;28;20189;-89
2022/08/20 08:39:43;;;;;;;19.47;14.67;;;;;;;;;;4983275;28;20592;-88
2022/08/20 08:42:54;;;;;;;23.63;13.97;;;;;;;;;;4993934;28;20217;-88
2022/08/20 08:46:04;;;;;;;15.07;12.63;;;;;;;;;;4983069;28;20200;-89
2022/08/20 08:49:16;;;;;;;16.83;13.33;;;;;;;;;;4972128;28;20229;-88
2022/08/20 08:52:24;;;;;;;15.23;12.93;;;;;;;;;;4972517;28;20182;-88
2022/08/20 08:55:29;;;;;;;15.47;13.20;;;;;;;;;;4983453;28;20201;-89
2022/08/20 08:58:34;;;;;;;14.77;12.47;;;;;;;;;;4963619;28;20229;-89
2022/08/20 09:01:45;;;;;;;13.07;11.53;;;;;;;;;;5001435;28;20271;-89
2022/08/20 09:04:50;;;;;;;13.50;11.70;;;;;;;;;;4976637;28;20185;-89
2022/08/20 09:07:54;;;;;;;15.20;11.77;;;;;;;;;;5031738;23;20354;-89
2022/08/20 09:11:04;;;;;;;13.87;11.90;;;;;;;;;;4995000;28;20189;-89
2022/08/20 09:14:09;;;;;;;14.23;11.63;;;;;;;;;;5006266;28;20184;-89
2022/08/20 09:17:18;;;;;;;15.67;12.03;;;;;;;;;;4995004;28;20548;-89
2022/08/20 09:20:22;;;;;;;13.70;11.57;;;;;;;;;;4986799;28;20568;-89
2022/08/20 09:23:26;;;;;;;16.73;12.10;;;;;;;;;;4975398;28;20229;-90
2022/08/20 09:26:30;;;;;;;15.17;12.27;;;;;;;;;;4997622;28;20193;-90
2022/08/20 09:29:35;;;;;;;19.13;12.90;;;;;;;;;;4971446;28;20237;-88
2022/08/20 09:32:40;;;;;;;14.80;12.33;;;;;;;;;;4967159;28;20186;-89
2022/08/20 09:35:45;;;;;;;16.07;13.20;;;;;;;;;;4967121;28;20542;-89
2022/08/20 09:38:49;;;;;;;14.60;12.00;;;;;;;;;;4967927;28;20328;-89
2022/08/20 09:41:54;;;;;;;13.73;12.23;;;;;;;;;;4967304;28;20190;-89
2022/08/20 09:44:59;;;;;;;15.40;12.53;;;;;;;;;;4968330;28;20210;-90
2022/08/20 09:48:03;;;;;;;15.80;12.63;;;;;;;;;;4967007;28;20229;-90
2022/08/20 09:51:07;;;;;;;13.67;12.07;;;;;;;;;;4955716;28;20201;-86
2022/08/20 09:54:11;;;;;;;15.53;12.23;;;;;;;;;;4967683;28;20186;-87
2022/08/20 09:57:15;;;;;;;14.50;12.03;;;;;;;;;;4992948;28;20212;-87
2022/08/20 10:00:20;;;;;;;16.23;12.80;;;;;;;;;;4975104;28;20185;-86
2022/08/20 10:03:24;;;;;;;13.53;10.83;;;;;;;;;;4987655;28;20695;-88
2022/08/20 10:06:28;;;;;;;13.80;11.07;;;;;;;;;;4975281;28;20189;-86
2022/08/20 10:09:34;;;;;;;15.83;12.03;;;;;;;;;;4974855;28;20248;-86
2022/08/20 10:12:40;;;;;;;15.37;11.67;;;;;;;;;;4996685;28;20185;-86
2022/08/20 10:15:44;;;;;;;14.63;12.53;;;;;;;;;;4985366;28;20186;-86
2022/08/20 10:18:48;;;;;;;15.17;12.30;;;;;;;;;;4974069;28;20229;-87
2022/08/20 10:21:53;;;;;;;15.17;11.63;;;;;;;;;;4974031;28;20205;-87
2022/08/20 10:24:57;;;;;;;12.80;11.50;;;;;;;;;;4985353;28;20182;-87
2022/08/20 10:28:02;;;;;;;12.80;11.33;;;;;;;;;;4985064;28;20221;-87
2022/08/20 10:31:10;;;;;;;14.40;11.60;;;;;;;;;;4974254;28;20185;-86
2022/08/20 10:34:14;;;;;;;13.73;12.33;;;;;;;;;;4974348;28;20209;-86
2022/08/20 10:37:23;;;;;;;16.77;11.83;;;;;;;;;;4973742;28;20201;-87
2022/08/20 10:40:27;;;;;;;12.00;10.70;;;;;;;;;;4985795;28;20190;-87
2022/08/20 10:43:31;;;;;;;12.17;10.70;;;;;;;;;;4985131;28;20228;-87
2022/08/20 10:46:35;;;;;;;13.47;10.17;;;;;;;;;;4974462;28;20189;-87
2022/08/20 10:49:40;;;;;;;12.33;11.00;;;;;;;;;;4996282;28;20584;-87
2022/08/20 10:52:45;;;;;;;13.23;10.53;;;;;;;;;;4985034;28;20205;-86
2022/08/20 10:55:52;;;;;;;12.80;11.00;;;;;;;;;;4984518;28;20201;-86
2022/08/20 10:58:55;;;;;;;13.00;11.67;;;;;;;;;;4985456;28;20228;-86
2022/08/20 11:02:00;;;;;;;12.57;11.17;;;;;;;;;;4978107;28;20197;-86
2022/08/20 11:05:05;;;;;;;11.97;10.77;;;;;;;;;;4976454;28;20723;-86
2022/08/20 11:08:09;;;;;;;13.93;11.67;;;;;;;;;;4988203;28;20592;-86
2022/08/20 11:11:13;;;;;;;13.37;10.27;;;;;;;;;;4998136;28;20213;-87
2022/08/20 11:14:17;;;;;;;13.60;12.23;;;;;;;;;;4984210;28;20181;-87
2022/08/20 11:17:24;;;;;;;12.60;11.07;;;;;;;;;;4984521;28;20189;-87
2022/08/20 11:20:30;;;;;;;13.93;12.53;;;;;;;;;;4965695;28;20198;-87
2022/08/20 11:23:35;;;;;;;12.13;10.97;;;;;;;;;;4965796;28;20225;-86
2022/08/20 11:26:39;;;;;;;12.97;11.67;;;;;;;;;;4968699;28;20185;-86
2022/08/20 11:29:43;;;;;;;13.77;12.37;;;;;;;;;;4959206;28;20657;-85
2022/08/20 11:32:47;;;;;;;14.53;13.03;;;;;;;;;;4971659;28;20210;-86
2022/08/20 11:35:52;;;;;;;15.27;12.33;;;;;;;;;;4975393;28;20177;-86
2022/08/20 11:38:56;;;;;;;13.70;12.10;;;;;;;;;;4975347;28;20221;-86
2022/08/20 11:42:01;;;;;;;15.20;12.50;;;;;;;;;;4974718;28;20190;-86
2022/08/20 11:45:06;;;;;;;13.93;12.30;;;;;;;;;;4987322;28;20582;-87
2022/08/20 11:48:10;;;;;;;15.40;13.37;;;;;;;;;;4987193;28;20229;-87
2022/08/20 11:51:14;;;;;;;14.20;12.77;;;;;;;;;;4986757;28;20189;-86
2022/08/20 11:54:19;;;;;;;14.53;13.03;;;;;;;;;;4982365;28;20210;-86
2022/08/20 11:57:30;;;;;;;14.07;12.60;;;;;;;;;;4960827;28;20194;-86
2022/08/20 12:00:35;;;;;;;14.40;12.90;;;;;;;;;;4987070;28;20205;-86
2022/08/20 12:03:40;;;;;;;14.07;12.30;;;;;;;;;;4984284;28;20222;-87
2022/08/20 12:06:44;;;;;;;13.03;11.73;;;;;;;;;;4979674;28;20676;-87
2022/08/20 12:09:48;;;;;;;14.53;12.53;;;;;;;;;;4970823;28;20201;-86
2022/08/20 12:12:54;;;;;;;15.27;12.27;;;;;;;;;;4967037;28;20198;-86
2022/08/20 12:15:59;;;;;;;14.30;12.80;;;;;;;;;;4983332;28;20193;-89
2022/08/20 12:19:03;;;;;;;15.53;13.93;;;;;;;;;;4993682;28;20228;-87
2022/08/20 12:22:08;;;;;;;16.43;14.23;;;;;;;;;;4972588;28;20205;-87
2022/08/20 12:25:13;;;;;;;14.43;12.93;;;;;;;;;;4982558;28;20233;-87
2022/08/20 12:28:17;;;;;;;14.40;12.90;;;;;;;;;;4964177;28;20221;-87
2022/08/20 12:31:21;;;;;;;14.43;13.03;;;;;;;;;;4985028;28;20684;-87
2022/08/20 12:34:25;;;;;;;15.60;13.57;;;;;;;;;;4981450;28;20193;-87
2022/08/20 12:37:30;;;;;;;14.53;13.03;;;;;;;;;;4984992;28;20214;-87
2022/08/20 12:40:34;;;;;;;13.63;12.33;;;;;;;;;;4992040;28;20209;-87
2022/08/20 12:43:38;;;;;;;14.40;13.00;;;;;;;;;;4976729;28;20233;-88
2022/08/20 12:46:43;;;;;;;14.63;13.13;;;;;;;;;;4979355;28;20213;-88
2022/08/20 12:49:50;;;;;;;14.37;12.90;;;;;;;;;;4970772;28;20224;-87
2022/08/20 12:52:54;;;;;;;13.97;12.57;;;;;;;;;;4970257;28;20197;-86
2022/08/20 12:56:01;;;;;;;15.43;13.97;;;;;;;;;;4976977;28;20186;-90
2022/08/20 12:59:05;;;;;;;15.60;14.00;;;;;;;;;;4967512;28;20229;-86
2022/08/20 13:02:09;;;;;;;16.83;14.67;;;;;;;;;;4982501;28;20201;-87
2022/08/20 13:05:15;;;;;;;15.37;13.77;;;;;;;;;;4977718;28;20217;-86
2022/08/20 13:08:19;;;;;;;15.03;13.43;;;;;;;;;;4972451;28;20242;-86
2022/08/20 13:11:23;;;;;;;17.93;15.43;;;;;;;;;;4966546;28;20690;-87
2022/08/20 13:14:27;;;;;;;14.60;13.10;;;;;;;;;;4983863;28;20194;-87
2022/08/20 13:17:31;;;;;;;14.93;13.33;;;;;;;;;;4973978;28;20569;-87
2022/08/20 13:20:36;;;;;;;14.60;13.10;;;;;;;;;;4990027;28;20186;-86
2022/08/20 13:23:40;;;;;;;16.93;13.77;;;;;;;;;;4973223;28;20190;-88
2022/08/20 13:26:44;;;;;;;15.87;13.93;;;;;;;;;;4994691;28;20188;-87
2022/08/20 13:29:51;;;;;;;19.30;14.60;;;;;;;;;;4975430;28;20685;-87
2022/08/20 13:32:56;;;;;;;19.27;15.37;;;;;;;;;;4979187;28;20687;-88
2022/08/20 13:36:00;;;;;;;15.20;13.70;;;;;;;;;;4963467;28;20701;-88
2022/08/20 13:39:05;;;;;;;17.63;15.77;;;;;;;;;;4962872;28;20222;-88
2022/08/20 13:42:11;;;;;;;16.20;14.67;;;;;;;;;;4966254;28;20202;-87
2022/08/20 13:45:16;;;;;;;16.97;15.30;;;;;;;;;;4964047;28;20227;-87
2022/08/20 13:48:20;;;;;;;14.80;13.37;;;;;;;;;;4953433;28;20708;-87
2022/08/20 13:51:24;;;;;;;18.13;15.63;;;;;;;;;;4995731;28;20214;-87
2022/08/20 13:54:28;;;;;;;19.57;17.57;;;;;;;;;;4996127;28;20209;-87
2022/08/20 13:57:32;;;;;;;17.97;16.23;;;;;;;;;;4974094;28;20211;-87
2022/08/20 14:00:37;;;;;;;18.60;16.80;;;;;;;;;;4974893;28;20198;-88
2022/08/20 14:03:41;;;;;;;17.20;15.43;;;;;;;;;;4979322;28;20211;-88
2022/08/20 14:06:45;;;;;;;19.07;17.00;;;;;;;;;;4966052;28;20213;-87
2022/08/20 14:09:55;;;;;;;18.70;16.80;;;;;;;;;;4966291;28;20194;-87
2022/08/20 14:13:02;;;;;;;18.33;16.50;;;;;;;;;;4966373;28;20186;-88
2022/08/20 14:16:06;;;;;;;18.17;16.27;;;;;;;;;;4973948;28;20748;-87
2022/08/20 14:19:10;;;;;;;18.57;16.63;;;;;;;;;;4977482;28;20225;-87
2022/08/20 14:22:16;;;;;;;20.30;17.83;;;;;;;;;;4987651;28;20201;-87
2022/08/20 14:25:21;;;;;;;17.53;15.73;;;;;;;;;;4988825;28;20213;-86
2022/08/20 14:28:25;;;;;;;18.63;16.70;;;;;;;;;;4970051;28;20242;-86
2022/08/20 14:31:30;;;;;;;18.67;16.70;;;;;;;;;;4984720;28;20201;-86
2022/08/20 14:34:34;;;;;;;22.67;16.43;;;;;;;;;;4976060;28;20584;-87
2022/08/20 14:37:42;;;;;;;9.07;8.17;;;;;;;;;;4960942;28;20229;-86
2022/08/20 14:40:47;;;;;;;8.43;7.63;;;;;;;;;;4969319;28;20974;-87
2022/08/20 14:43:51;;;;;;;8.00;6.33;;;;;;;;;;4986704;28;20205;-87
2022/08/20 14:46:56;;;;;;;5.17;4.63;;;;;;;;;;4972293;28;20206;-87
2022/08/20 14:50:04;;;;;;;5.87;5.33;;;;;;;;;;4975531;28;20194;-86
2022/08/20 14:53:08;;;;;;;4.97;4.47;;;;;;;;;;4984941;28;20681;-87
2022/08/20 14:56:14;;;;;;;8.10;5.10;;;;;;;;;;4974430;28;20194;-85
2022/08/20 14:59:18;;;;;;;4.40;4.00;;;;;;;;;;4995789;28;20214;-84
2022/08/20 15:02:22;;;;;;;4.80;4.23;;;;;;;;;;4974159;28;20201;-84
2022/08/20 15:05:26;;;;;;;4.23;3.83;;;;;;;;;;4975381;28;20210;-86
2022/08/20 15:08:31;;;;;;;4.90;3.40;;;;;;;;;;4970005;28;20242;-86
2022/08/20 15:11:38;;;;;;;3.70;3.40;;;;;;;;;;4969592;28;20626;-86
2022/08/20 15:14:42;;;;;;;3.93;3.47;;;;;;;;;;4960100;28;20195;-86
2022/08/20 15:17:49;;;;;;;8.03;3.40;;;;;;;;;;4968730;28;20562;-86
2022/08/20 15:20:53;;;;;;;3.37;3.07;;;;;;;;;;4985772;28;20205;-86
2022/08/20 15:23:57;;;;;;;4.03;3.50;;;;;;;;;;4989477;28;20178;-85
2022/08/20 15:27:14;;;;;;;4.53;3.63;;;;;;;;;;4976235;28;20205;-85
2022/08/20 15:30:21;;;;;;;3.80;3.00;;;;;;;;;;5000701;28;20186;-86
2022/08/20 15:33:25;;;;;;;3.27;2.97;;;;;;;;;;4987245;28;20186;-85
2022/08/20 15:36:29;;;;;;;3.50;3.10;;;;;;;;;;4972780;28;20190;-86
2022/08/20 15:39:33;;;;;;;3.70;3.00;;;;;;;;;;4972548;28;20217;-86
2022/08/20 15:42:38;;;;;;;3.30;3.00;;;;;;;;;;4983739;28;20186;-86
2022/08/20 15:45:42;;;;;;;3.20;2.90;;;;;;;;;;4982803;28;20219;-86
2022/08/20 15:48:47;;;;;;;5.90;3.33;;;;;;;;;;4968029;28;20218;-86
2022/08/20 15:51:51;;;;;;;4.47;3.47;;;;;;;;;;4964378;28;20191;-86
2022/08/20 15:54:55;;;;;;;3.47;3.17;;;;;;;;;;4964286;28;20179;-86
2022/08/20 15:58:24;;;;;;;4.37;3.97;;;;;;;;;;4963787;28;20218;-86
2022/08/20 16:02:04;;;;;;;3.90;3.50;;;;;;;;;;4964840;28;20547;-86
2022/08/20 16:05:08;;;;;;;4.07;3.67;;;;;;;;;;4970500;28;20229;-86
2022/08/20 16:08:12;;;;;;;4.63;3.83;;;;;;;;;;4972062;28;20234;-85
2022/08/20 16:11:38;;;;;;;4.60;3.57;;;;;;;;;;4966136;28;20195;-85
2022/08/20 16:14:47;;;;;;;5.33;3.60;;;;;;;;;;4984117;28;20178;-86
2022/08/20 16:18:00;;;;;;;3.90;3.50;;;;;;;;;;4984260;28;20549;-86
2022/08/20 16:21:09;;;;;;;4.30;3.90;;;;;;;;;;4995226;28;20190;-85
2022/08/20 16:24:13;;;;;;;5.87;3.47;;;;;;;;;;4953340;28;20191;-86
2022/08/20 16:27:50;;;;;;;4.33;3.93;;;;;;;;;;4964165;28;20186;-86
2022/08/20 16:31:06;;;;;;;4.90;3.27;;;;;;;;;;4953109;28;20199;-86
2022/08/20 16:34:29;;;;;;;4.43;4.03;;;;;;;;;;4982262;28;20186;-86
2022/08/20 16:37:46;;;;;;;4.70;4.03;;;;;;;;;;4966508;28;20191;-85
2022/08/20 16:41:15;;;;;;;4.00;3.60;;;;;;;;;;4965965;28;20199;-86
2022/08/20 16:44:39;;;;;;;4.47;4.07;;;;;;;;;;4952716;28;20191;-85
2022/08/20 16:47:45;;;;;;;4.40;3.83;;;;;;;;;;4953158;28;20701;-85
2022/08/20 16:50:56;;;;;;;4.10;3.70;;;;;;;;;;4965005;28;20194;-85
2022/08/20 16:54:01;;;;;;;7.87;4.03;;;;;;;;;;4963233;28;20198;-86
2022/08/20 16:57:05;;;;;;;10.03;4.27;;;;;;;;;;4963948;28;20542;-85
2022/08/20 17:00:15;;;;;;;6.47;4.03;;;;;;;;;;4974726;28;20290;-86
2022/08/20 17:03:26;;;;;;;4.73;3.73;;;;;;;;;;4964764;28;20190;-85
2022/08/20 17:06:36;;;;;;;6.23;4.13;;;;;;;;;;4965041;28;20555;-85
2022/08/20 17:09:42;;;;;;;5.73;3.77;;;;;;;;;;4987830;28;20218;-85
2022/08/20 17:13:05;;;;;;;5.40;3.93;;;;;;;;;;4983533;28;20194;-85
2022/08/20 17:16:12;;;;;;;4.07;3.50;;;;;;;;;;4979043;28;20190;-85
2022/08/20 17:19:30;;;;;;;3.87;3.57;;;;;;;;;;4960955;28;20219;-85
2022/08/20 17:22:41;;;;;;;3.77;3.27;;;;;;;;;;4960977;28;20202;-85
2022/08/20 17:25:56;;;;;;;8.23;3.47;;;;;;;;;;4985755;28;20211;-85
2022/08/20 17:29:14;;;;;;;4.27;3.53;;;;;;;;;;4985097;28;20225;-85
2022/08/20 17:32:26;;;;;;;4.70;3.43;;;;;;;;;;4985623;28;20643;-85
2022/08/20 17:35:33;;;;;;;3.40;3.00;;;;;;;;;;4981750;28;20183;-85
2022/08/20 17:38:50;;;;;;;4.27;3.60;;;;;;;;;;5003839;28;20213;-85
2022/08/20 17:42:04;;;;;;;3.67;3.20;;;;;;;;;;4992725;28;20187;-86
2022/08/20 17:45:15;;;;;;;3.80;3.30;;;;;;;;;;4991387;28;20206;-86
2022/08/20 17:48:23;;;;;;;3.67;3.17;;;;;;;;;;5000801;28;20222;-86
2022/08/20 17:51:35;;;;;;;4.07;3.13;;;;;;;;;;4993751;28;20662;-86
2022/08/20 17:54:43;;;;;;;4.13;3.00;;;;;;;;;;4984771;28;20183;-85
2022/08/20 17:57:55;;;;;;;4.47;3.00;;;;;;;;;;4958951;28;20222;-85
2022/08/20 18:00:58;;;;;;;4.13;2.97;;;;;;;;;;4974127;28;20195;-85
2022/08/20 18:04:03;;;;;;;3.23;2.93;;;;;;;;;;4994949;28;20202;-85
2022/08/20 18:07:15;;;;;;;7.37;3.20;;;;;;;;;;4985071;28;20225;-85
2022/08/20 18:10:23;;;;;;;5.47;3.10;;;;;;;;;;4987169;28;20194;-84
2022/08/20 18:13:49;;;;;;;6.43;3.33;;;;;;;;;;4976661;28;20211;-85
2022/08/20 18:17:08;;;;;;;8.07;3.40;;;;;;;;;;4989219;28;20191;-84
2022/08/20 18:20:38;;;;;;;3.57;3.10;;;;;;;;;;4985443;28;20206;-84
2022/08/20 18:23:51;;;;;;;5.70;3.20;;;;;;;;;;4986151;28;20638;-84